Terminal Aerodrome Forecast
Issued by NWS Tampa Bay Area, FL

Home | Current Version | Previous Version | Text Only | Print | Product List | Glossary On
Versions: 1 2 3 4 5 6 7 8 9 10 11 12 13 14
000
FTUS42 KTBW 281200 AAA
TAFSRQ
TAF AMD
KSRQ 281248Z 2813/2912 00000KT 1SM BR SCT005 SCT250
      TEMPO 2813/2814 1/4SM FG VV004
     FM281400 VRB03KT 4SM BR SCT010
     FM281500 VRB05KT P6SM FEW150 SCT250
     FM281700 19006KT P6SM SCT250
     FM290600 19005KT 5SM BR SCT250=

USA.gov is the U.S. government's official web portal to all federal, state and local government web resources and services.